Time,TemperatureF,DewpointF,PressureIn,WindDirection,WindDirectionDegrees,WindSpeedMPH,WindSpeedGustMPH,Humidity,HourlyPrecipIn,Conditions,Clouds,dailyrainin,SoftwareType,DateUTC
2013-07-25 00:02:00,59.2,55.3,29.88,ESE,115,4.0,21.0,87,0.15,,---,0.02,VWS V13.00,2013-07-25 06:02:00,
2013-07-25 00:07:00,59.0,55.1,29.89,ESE,105,5.0,21.0,87,0.15,,---,0.02,VWS V13.00,2013-07-25 06:07:00,
2013-07-25 00:12:00,59.3,54.8,29.89,ESE,117,3.0,9.0,85,0.15,,---,0.02,VWS V13.00,2013-07-25 06:12:00,
2013-07-25 00:17:00,59.5,54.7,29.89,SE,126,9.0,14.0,84,0.15,,---,0.02,VWS V13.00,2013-07-25 06:17:00,
2013-07-25 00:22:00,59.8,54.6,29.87,ESE,122,3.0,17.0,83,0.15,,---,0.02,VWS V13.00,2013-07-25 06:22:00,
2013-07-25 00:27:00,59.9,54.4,29.87,SSE,148,7.0,21.0,82,0.15,,---,0.02,VWS V13.00,2013-07-25 06:27:00,
2013-07-25 00:32:00,59.9,54.4,29.87,ESE,110,9.0,21.0,82,0.15,,---,0.02,VWS V13.00,2013-07-25 06:32:00,
2013-07-25 00:37:00,59.5,54.3,29.85,East,87,4.0,21.0,83,0.15,,---,0.02,VWS V13.00,2013-07-25 06:37:00,
2013-07-25 00:42:00,59.0,54.2,29.85,East,98,6.0,13.0,84,0.02,,---,0.02,VWS V13.00,2013-07-25 06:42:00,
2013-07-25 00:47:00,59.0,54.2,29.85,East,92,6.0,13.0,84,0.02,,---,0.02,VWS V13.00,2013-07-25 06:47:00,
2013-07-25 00:52:00,59.0,54.2,29.85,East,96,6.0,13.0,84,0.02,,---,0.02,VWS V13.00,2013-07-25 06:52:00,
2013-07-25 00:57:00,59.0,54.2,29.85,ESE,106,4.0,13.0,84,0.02,,---,0.02,VWS V13.00,2013-07-25 06:57:00,
2013-07-25 01:02:00,59.0,54.2,29.85,ESE,105,3.0,13.0,84,0.02,,---,0.02,VWS V13.00,2013-07-25 07:02:00,
2013-07-25 01:07:00,59.0,54.2,29.85,ESE,109,3.0,13.0,84,0.02,,---,0.02,VWS V13.00,2013-07-25 07:07:00,
2013-07-25 01:12:00,59.0,53.8,29.85,ESE,105,3.0,5.0,83,0.00,,---,0.02,VWS V13.00,2013-07-25 07:12:00,
2013-07-25 01:17:00,59.0,53.8,29.85,ESE,116,4.0,7.0,83,0.00,,---,0.02,VWS V13.00,2013-07-25 07:17:00,
2013-07-25 01:22:00,59.0,53.8,29.85,ESE,114,3.0,9.0,83,0.00,,---,0.02,VWS V13.00,2013-07-25 07:22:00,
2013-07-25 01:27:00,59.0,53.8,29.85,ESE,107,0.0,9.0,83,0.00,,---,0.02,VWS V13.00,2013-07-25 07:27:00,
2013-07-25 01:32:00,59.0,53.8,29.85,ESE,119,1.0,9.0,83,0.00,,---,0.02,VWS V13.00,2013-07-25 07:32:00,
2013-07-25 01:37:00,59.0,53.8,29.86,ESE,114,5.0,9.0,83,0.00,,---,0.02,VWS V13.00,2013-07-25 07:37:00,
2013-07-25 01:42:00,58.9,53.8,29.86,SE,129,2.0,10.0,83,0.00,,---,0.02,VWS V13.00,2013-07-25 07:42:00,
2013-07-25 01:47:00,58.7,53.9,29.86,ESE,107,5.0,10.0,84,0.00,,---,0.02,VWS V13.00,2013-07-25 07:47:00,
2013-07-25 01:52:00,58.7,53.9,29.85,ESE,122,4.0,13.0,84,0.00,,---,0.02,VWS V13.00,2013-07-25 07:52:00,
2013-07-25 01:57:00,58.7,53.9,29.85,SE,138,5.0,13.0,84,0.00,,---,0.02,VWS V13.00,2013-07-25 07:57:00,
2013-07-25 02:02:00,58.5,53.7,29.85,SE,134,0.0,13.0,84,0.00,,---,0.02,VWS V13.00,2013-07-25 08:02:00,
2013-07-25 02:07:00,58.3,53.5,29.86,SE,134,0.0,13.0,84,0.00,,---,0.02,VWS V13.00,2013-07-25 08:07:00,
2013-07-25 02:12:00,57.7,53.2,29.86,SE,134,0.0,0.0,85,0.00,,---,0.02,VWS V13.00,2013-07-25 08:12:00,
2013-07-25 02:17:00,57.5,53.3,29.86,SE,134,0.0,0.0,86,0.00,,---,0.02,VWS V13.00,2013-07-25 08:17:00,
2013-07-25 02:22:00,57.5,53.7,29.87,SE,134,0.0,0.0,87,0.00,,---,0.02,VWS V13.00,2013-07-25 08:22:00,
2013-07-25 02:27:00,57.3,53.2,29.87,SE,134,0.0,0.0,86,0.00,,---,0.02,VWS V13.00,2013-07-25 08:27:00,
2013-07-25 02:32:00,57.1,53.3,29.87,SE,134,0.0,0.0,87,0.00,,---,0.02,VWS V13.00,2013-07-25 08:32:00,
2013-07-25 02:37:00,57.0,53.5,29.88,SE,134,0.0,0.0,88,0.00,,---,0.02,VWS V13.00,2013-07-25 08:37:00,
2013-07-25 02:42:00,56.8,53.3,29.88,SE,134,0.0,0.0,88,0.00,,---,0.02,VWS V13.00,2013-07-25 08:42:00,
2013-07-25 02:47:00,56.6,53.1,29.88,SE,134,0.0,0.0,88,0.00,,---,0.02,VWS V13.00,2013-07-25 08:47:00,
2013-07-25 02:52:00,56.4,53.2,29.89,SE,134,0.0,0.0,89,0.00,,---,0.02,VWS V13.00,2013-07-25 08:52:00,
2013-07-25 02:57:00,56.2,53.0,29.89,SE,134,0.0,0.0,89,0.00,,---,0.02,VWS V13.00,2013-07-25 08:57:00,
2013-07-25 03:02:00,56.1,53.2,29.89,SE,134,0.0,0.0,90,0.00,,---,0.02,VWS V13.00,2013-07-25 09:02:00,
2013-07-25 03:07:00,56.0,53.1,29.89,SE,132,0.0,0.0,90,0.00,,---,0.02,VWS V13.00,2013-07-25 09:07:00,
2013-07-25 03:12:00,55.8,52.9,29.89,SE,127,0.0,0.0,90,0.00,,---,0.02,VWS V13.00,2013-07-25 09:12:00,
2013-07-25 03:17:00,55.5,52.6,29.89,SE,126,0.0,0.0,90,0.00,,---,0.02,VWS V13.00,2013-07-25 09:17:00,
2013-07-25 03:22:00,55.3,52.7,29.89,SE,127,0.0,0.0,91,0.00,,---,0.02,VWS V13.00,2013-07-25 09:22:00,
2013-07-25 03:27:00,55.3,52.7,29.89,SE,126,0.0,0.0,91,0.00,,---,0.02,VWS V13.00,2013-07-25 09:27:00,
2013-07-25 03:32:00,55.4,53.1,29.89,SE,127,0.0,0.0,92,0.00,,---,0.02,VWS V13.00,2013-07-25 09:32:00,
2013-07-25 03:37:00,55.4,52.8,29.90,SE,128,4.0,7.0,91,0.00,,---,0.02,VWS V13.00,2013-07-25 09:37:00,
2013-07-25 03:42:00,55.2,52.6,29.90,SE,130,4.0,9.0,91,0.00,,---,0.02,VWS V13.00,2013-07-25 09:42:00,
2013-07-25 03:47:00,55.4,53.1,29.90,SE,129,3.0,9.0,92,0.00,,---,0.02,VWS V13.00,2013-07-25 09:47:00,
2013-07-25 03:52:00,55.3,52.7,29.92,SE,129,0.0,9.0,91,0.00,,---,0.02,VWS V13.00,2013-07-25 09:52:00,
2013-07-25 03:57:00,55.2,52.6,29.92,SE,129,0.0,9.0,91,0.00,,---,0.02,VWS V13.00,2013-07-25 09:57:00,
2013-07-25 04:02:00,55.1,52.5,29.92,SE,129,0.0,9.0,91,0.00,,---,0.02,VWS V13.00,2013-07-25 10:02:00,
2013-07-25 04:07:00,54.9,52.0,29.94,SE,128,0.0,9.0,90,0.00,,---,0.02,VWS V13.00,2013-07-25 10:07:00,
2013-07-25 04:12:00,54.8,52.2,29.94,SE,128,0.0,0.0,91,0.00,,---,0.02,VWS V13.00,2013-07-25 10:12:00,
2013-07-25 04:17:00,54.7,52.1,29.94,SE,128,0.0,0.0,91,0.00,,---,0.02,VWS V13.00,2013-07-25 10:17:00,
2013-07-25 04:22:00,54.6,52.0,29.94,SE,128,0.0,0.0,91,0.00,,---,0.02,VWS V13.00,2013-07-25 10:22:00,
2013-07-25 04:27:00,54.6,52.3,29.94,SE,128,0.0,0.0,92,0.00,,---,0.02,VWS V13.00,2013-07-25 10:27:00,
2013-07-25 04:32:00,54.6,52.3,29.94,SE,128,0.0,0.0,92,0.00,,---,0.02,VWS V13.00,2013-07-25 10:32:00,
2013-07-25 04:37:00,54.6,52.3,29.94,SE,129,0.0,0.0,92,0.00,,---,0.02,VWS V13.00,2013-07-25 10:37:00,
2013-07-25 04:42:00,54.5,52.2,29.94,SE,128,0.0,0.0,92,0.00,,---,0.02,VWS V13.00,2013-07-25 10:42:00,
2013-07-25 04:47:00,54.5,52.2,29.94,SE,129,0.0,0.0,92,0.00,,---,0.02,VWS V13.00,2013-07-25 10:47:00,
2013-07-25 04:52:00,54.6,52.3,29.94,SE,128,0.0,0.0,92,0.00,,---,0.02,VWS V13.00,2013-07-25 10:52:00,
2013-07-25 04:57:00,54.4,51.8,29.94,SE,129,0.0,0.0,91,0.00,,---,0.02,VWS V13.00,2013-07-25 10:57:00,
2013-07-25 05:02:00,54.2,51.3,29.94,SE,128,0.0,0.0,90,0.00,,---,0.02,VWS V13.00,2013-07-25 11:02:00,
2013-07-25 05:07:00,54.0,51.4,29.95,SE,129,0.0,0.0,91,0.00,,---,0.02,VWS V13.00,2013-07-25 11:07:00,
2013-07-25 05:12:00,53.7,51.1,29.95,SE,129,0.0,0.0,91,0.00,,---,0.02,VWS V13.00,2013-07-25 11:12:00,
2013-07-25 05:18:00,53.1,50.5,29.95,SE,128,0.0,0.0,91,0.00,,---,0.02,VWS V13.00,2013-07-25 11:18:00,
2013-07-25 05:23:00,52.6,50.3,29.96,SE,128,0.0,0.0,92,0.00,,---,0.02,VWS V13.00,2013-07-25 11:23:00,
2013-07-25 05:28:00,52.3,50.0,29.96,SE,129,0.0,0.0,92,0.00,,---,0.02,VWS V13.00,2013-07-25 11:28:00,
2013-07-25 05:33:00,52.0,49.8,29.96,SE,128,0.0,0.0,92,0.00,,---,0.02,VWS V13.00,2013-07-25 11:33:00,
2013-07-25 05:38:00,51.7,49.8,29.96,SE,129,0.0,0.0,93,0.00,,---,0.02,VWS V13.00,2013-07-25 11:38:00,
2013-07-25 05:43:00,51.6,49.7,29.96,SE,129,0.0,0.0,93,0.00,,---,0.02,VWS V13.00,2013-07-25 11:43:00,
2013-07-25 05:47:00,51.1,49.2,29.96,SE,129,0.0,0.0,93,0.00,,---,0.02,VWS V13.00,2013-07-25 11:47:00,
2013-07-25 05:52:00,50.8,48.8,29.97,SE,129,0.0,0.0,93,0.00,,---,0.02,VWS V13.00,2013-07-25 11:52:00,
2013-07-25 05:57:00,50.4,48.5,29.97,SE,129,0.0,0.0,93,0.00,,---,0.02,VWS V13.00,2013-07-25 11:57:00,
2013-07-25 06:02:00,50.2,48.5,29.97,SE,129,5.0,7.0,94,0.00,,---,0.02,VWS V13.00,2013-07-25 12:02:00,
2013-07-25 06:07:00,50.2,48.5,29.98,SE,129,6.0,6.0,94,0.00,,---,0.02,VWS V13.00,2013-07-25 12:07:00,
2013-07-25 06:12:00,50.3,48.6,29.98,SE,129,5.0,6.0,94,0.00,,---,0.02,VWS V13.00,2013-07-25 12:12:00,
2013-07-25 06:17:00,50.4,49.0,29.98,SE,133,6.0,9.0,95,0.00,,---,0.02,VWS V13.00,2013-07-25 12:17:00,
2013-07-25 06:22:00,50.5,49.1,29.98,SE,133,6.0,9.0,95,0.00,,---,0.02,VWS V13.00,2013-07-25 12:22:00,
2013-07-25 06:27:00,50.6,49.2,29.98,SE,130,5.0,9.0,95,0.00,,---,0.02,VWS V13.00,2013-07-25 12:27:00,
2013-07-25 06:32:00,50.5,49.1,29.98,SE,130,7.0,9.0,95,0.00,,---,0.02,VWS V13.00,2013-07-25 12:32:00,
2013-07-25 06:38:00,50.6,49.2,29.98,SE,130,4.0,5.0,95,0.00,,---,0.02,VWS V13.00,2013-07-25 12:38:00,
2013-07-25 06:43:00,50.8,49.4,29.98,SE,129,5.0,6.0,95,0.00,,---,0.02,VWS V13.00,2013-07-25 12:43:00,
2013-07-25 06:48:00,51.1,49.4,29.98,SE,130,3.0,7.0,94,0.00,,---,0.02,VWS V13.00,2013-07-25 12:48:00,
2013-07-25 06:53:00,51.4,49.7,30.00,SE,129,2.0,7.0,94,0.00,,---,0.02,VWS V13.00,2013-07-25 12:53:00,
2013-07-25 06:58:00,51.7,50.0,30.00,East,86,2.0,7.0,94,0.00,,---,0.02,VWS V13.00,2013-07-25 12:58:00,
2013-07-25 07:03:00,51.9,50.2,30.00,East,90,0.0,7.0,94,0.00,,---,0.02,VWS V13.00,2013-07-25 13:03:00,
2013-07-25 07:08:00,52.1,50.4,29.99,ESE,119,0.0,0.0,94,0.00,,---,0.02,VWS V13.00,2013-07-25 13:08:00,
2013-07-25 07:13:00,52.4,50.4,29.99,SE,128,0.0,0.0,93,0.00,,---,0.02,VWS V13.00,2013-07-25 13:13:00,
2013-07-25 07:18:00,52.7,50.7,29.99,SE,135,0.0,0.0,93,0.00,,---,0.02,VWS V13.00,2013-07-25 13:18:00,
2013-07-25 07:23:00,53.1,51.1,30.00,SE,136,0.0,0.0,93,0.00,,---,0.02,VWS V13.00,2013-07-25 13:23:00,
2013-07-25 07:28:00,53.5,51.2,30.00,SE,136,0.0,0.0,92,0.00,,---,0.02,VWS V13.00,2013-07-25 13:28:00,
2013-07-25 07:33:00,53.9,51.6,30.00,SE,136,0.0,0.0,92,0.00,,---,0.02,VWS V13.00,2013-07-25 13:33:00,
2013-07-25 07:38:00,54.4,52.1,29.99,SE,136,0.0,0.0,92,0.00,,---,0.02,VWS V13.00,2013-07-25 13:38:00,
2013-07-25 07:43:00,54.7,51.8,29.99,SE,136,0.0,0.0,90,0.00,,---,0.02,VWS V13.00,2013-07-25 13:43:00,
2013-07-25 07:48:00,55.0,52.1,29.99,SE,133,0.0,3.0,90,0.00,,---,0.02,VWS V13.00,2013-07-25 13:48:00,
2013-07-25 07:53:00,55.4,52.5,30.00,SE,132,0.0,3.0,90,0.00,,---,0.02,VWS V13.00,2013-07-25 13:53:00,
2013-07-25 07:58:00,55.9,53.0,30.00,SE,132,0.0,3.0,90,0.00,,---,0.02,VWS V13.00,2013-07-25 13:58:00,
2013-07-25 08:03:00,56.6,53.4,30.00,SSE,161,0.0,3.0,89,0.00,,---,0.02,VWS V13.00,2013-07-25 14:03:00,
2013-07-25 08:08:00,57.2,53.7,30.00,SE,137,0.0,0.0,88,0.00,,---,0.02,VWS V13.00,2013-07-25 14:08:00,
2013-07-25 08:13:00,57.8,53.7,30.00,SE,136,0.0,0.0,86,0.00,,---,0.02,VWS V13.00,2013-07-25 14:13:00,
2013-07-25 08:18:00,58.4,54.5,30.00,SE,136,0.0,0.0,87,0.00,,---,0.02,VWS V13.00,2013-07-25 14:18:00,
2013-07-25 08:23:00,59.0,54.5,29.99,SSE,164,0.0,0.0,85,0.00,,---,0.02,VWS V13.00,2013-07-25 14:23:00,
2013-07-25 08:28:00,59.5,55.0,29.99,SSW,194,0.0,0.0,85,0.00,,---,0.02,VWS V13.00,2013-07-25 14:28:00,
2013-07-25 08:33:00,60.0,55.2,29.99,ESE,118,0.0,0.0,84,0.00,,---,0.02,VWS V13.00,2013-07-25 14:33:00,
2013-07-25 08:37:00,60.4,55.2,29.98,ESE,118,0.0,0.0,83,0.00,,---,0.02,VWS V13.00,2013-07-25 14:37:00,
2013-07-25 08:42:00,60.9,55.4,29.98,ESE,118,0.0,0.0,82,0.00,,---,0.02,VWS V13.00,2013-07-25 14:42:00,
2013-07-25 08:47:00,61.4,55.9,29.98,ESE,118,0.0,0.0,82,0.00,,---,0.02,VWS V13.00,2013-07-25 14:47:00,
2013-07-25 08:52:00,62.0,55.8,30.01,South,173,0.0,0.0,80,0.00,,---,0.02,VWS V13.00,2013-07-25 14:52:00,
2013-07-25 08:57:00,62.5,55.9,30.01,SE,128,0.0,0.0,79,0.00,,---,0.02,VWS V13.00,2013-07-25 14:57:00,
2013-07-25 09:02:00,63.0,56.0,30.01,SE,128,0.0,0.0,78,0.00,,---,0.02,VWS V13.00,2013-07-25 15:02:00,
2013-07-25 09:07:00,63.5,56.2,30.01,SE,128,0.0,0.0,77,0.00,,---,0.02,VWS V13.00,2013-07-25 15:07:00,
2013-07-25 09:12:00,63.8,56.1,30.01,SW,214,0.0,0.0,76,0.00,,---,0.02,VWS V13.00,2013-07-25 15:12:00,
2013-07-25 09:17:00,64.1,57.1,30.01,West,263,0.0,0.0,78,0.00,,---,0.02,VWS V13.00,2013-07-25 15:17:00,
2013-07-25 09:22:00,64.4,57.4,30.01,NNW,338,0.0,0.0,78,0.00,,---,0.02,VWS V13.00,2013-07-25 15:22:00,
2013-07-25 09:27:00,64.5,56.4,30.01,NNW,338,0.0,0.0,75,0.00,,---,0.02,VWS V13.00,2013-07-25 15:27:00,
2013-07-25 09:32:00,64.5,56.0,30.01,NNW,339,0.0,0.0,74,0.00,,---,0.02,VWS V13.00,2013-07-25 15:32:00,
2013-07-25 09:37:00,64.6,56.5,30.00,NNW,338,0.0,0.0,75,0.00,,---,0.02,VWS V13.00,2013-07-25 15:37:00,
2013-07-25 09:42:00,64.8,56.0,30.00,NNE,24,3.0,5.0,73,0.00,,---,0.02,VWS V13.00,2013-07-25 15:42:00,
2013-07-25 09:47:00,65.2,57.8,30.00,NNE,31,6.0,7.0,77,0.00,,---,0.02,VWS V13.00,2013-07-25 15:47:00,
2013-07-25 09:52:00,65.6,57.1,30.00,North,10,5.0,9.0,74,0.00,,---,0.02,VWS V13.00,2013-07-25 15:52:00,
2013-07-25 09:57:00,65.7,57.9,30.00,NNE,16,6.0,9.0,76,0.00,,---,0.02,VWS V13.00,2013-07-25 15:57:00,
2013-07-25 10:02:00,66.0,57.9,30.00,NE,48,0.0,9.0,75,0.00,,---,0.02,VWS V13.00,2013-07-25 16:02:00,
2013-07-25 10:07:00,66.3,57.0,30.00,ENE,61,0.0,10.0,72,0.00,,---,0.02,VWS V13.00,2013-07-25 16:07:00,
2013-07-25 10:12:00,66.6,57.3,30.00,NNE,33,0.0,6.0,72,0.00,,---,0.02,VWS V13.00,2013-07-25 16:12:00,
2013-07-25 10:17:00,67.1,57.8,30.00,ENE,58,0.0,6.0,72,0.00,,---,0.02,VWS V13.00,2013-07-25 16:17:00,
2013-07-25 10:22:00,67.6,55.4,30.00,East,99,7.0,9.0,65,0.00,,---,0.02,VWS V13.00,2013-07-25 16:22:00,
2013-07-25 10:27:00,68.0,56.7,30.00,East,86,6.0,9.0,67,0.00,,---,0.02,VWS V13.00,2013-07-25 16:27:00,
2013-07-25 10:32:00,68.3,55.2,30.00,East,92,0.0,9.0,63,0.00,,---,0.02,VWS V13.00,2013-07-25 16:32:00,
2013-07-25 10:37:00,68.7,56.9,30.00,East,96,4.0,10.0,66,0.00,,---,0.02,VWS V13.00,2013-07-25 16:37:00,
2013-07-25 10:42:00,68.8,56.1,30.00,East,100,0.0,5.0,64,0.00,,---,0.02,VWS V13.00,2013-07-25 16:42:00,
2013-07-25 10:47:00,69.2,58.2,30.00,ESE,115,5.0,6.0,68,0.00,,---,0.02,VWS V13.00,2013-07-25 16:47:00,
2013-07-25 10:52:00,69.5,57.7,30.01,ESE,114,4.0,7.0,66,0.00,,---,0.02,VWS V13.00,2013-07-25 16:52:00,
2013-07-25 10:57:00,69.5,55.9,30.01,East,87,0.0,7.0,62,0.00,,---,0.02,VWS V13.00,2013-07-25 16:57:00,
2013-07-25 11:02:00,69.6,55.6,30.01,ESE,105,0.0,7.0,61,0.00,,---,0.02,VWS V13.00,2013-07-25 17:02:00,
2013-07-25 11:07:00,69.7,56.6,30.01,SE,142,4.0,9.0,63,0.00,,---,0.02,VWS V13.00,2013-07-25 17:07:00,
2013-07-25 11:12:00,69.8,55.8,30.01,East,88,3.0,11.0,61,0.00,,---,0.02,VWS V13.00,2013-07-25 17:12:00,
2013-07-25 11:17:00,70.0,56.8,30.01,East,80,7.0,11.0,63,0.00,,---,0.02,VWS V13.00,2013-07-25 17:17:00,
2013-07-25 11:22:00,70.2,56.6,30.01,ENE,76,4.0,11.0,62,0.00,,---,0.02,VWS V13.00,2013-07-25 17:22:00,
2013-07-25 11:27:00,70.2,54.3,30.01,East,96,0.0,11.0,57,0.00,,---,0.02,VWS V13.00,2013-07-25 17:27:00,
2013-07-25 11:32:00,70.4,55.9,30.01,ENE,77,6.0,11.0,60,0.00,,---,0.02,VWS V13.00,2013-07-25 17:32:00,
2013-07-25 11:37:00,70.8,51.3,30.01,ENE,74,0.0,0.0,50,0.00,,---,0.02,VWS V13.00,2013-07-25 17:37:00,
2013-07-25 11:42:00,71.1,54.6,30.01,ENE,61,0.0,6.0,56,0.00,,---,0.02,VWS V13.00,2013-07-25 17:42:00,
2013-07-25 11:47:00,71.6,53.6,30.01,East,90,5.0,7.0,53,0.00,,---,0.02,VWS V13.00,2013-07-25 17:47:00,
2013-07-25 11:52:00,71.7,54.7,30.01,East,80,4.0,10.0,55,0.00,,---,0.02,VWS V13.00,2013-07-25 17:52:00,
2013-07-25 11:57:00,72.1,54.0,30.01,ESE,103,0.0,10.0,53,0.00,,---,0.02,VWS V13.00,2013-07-25 17:57:00,
2013-07-25 12:02:00,72.5,54.4,30.01,ESE,119,0.0,10.0,53,0.00,,---,0.02,VWS V13.00,2013-07-25 18:02:00,
2013-07-25 12:07:00,72.7,54.6,30.00,East,90,0.0,0.0,53,0.00,,---,0.02,VWS V13.00,2013-07-25 18:07:00,
2013-07-25 12:12:00,72.6,53.5,30.00,East,94,4.0,9.0,51,0.00,,---,0.02,VWS V13.00,2013-07-25 18:12:00,
2013-07-25 12:17:00,72.6,52.9,30.00,SE,137,11.0,11.0,50,0.00,,---,0.02,VWS V13.00,2013-07-25 18:17:00,
2013-07-25 12:22:00,72.6,54.0,29.99,SE,131,5.0,11.0,52,0.00,,---,0.02,VWS V13.00,2013-07-25 18:22:00,
2013-07-25 12:27:00,72.5,53.4,29.99,ESE,109,0.0,11.0,51,0.00,,---,0.02,VWS V13.00,2013-07-25 18:27:00,
2013-07-25 12:32:00,72.8,53.1,29.99,SE,125,8.0,11.0,50,0.00,,---,0.02,VWS V13.00,2013-07-25 18:32:00,
2013-07-25 12:37:00,72.9,53.2,29.99,SE,146,5.0,6.0,50,0.00,,---,0.02,VWS V13.00,2013-07-25 18:37:00,
2013-07-25 12:42:00,73.2,52.4,29.99,ESE,118,0.0,6.0,48,0.00,,---,0.02,VWS V13.00,2013-07-25 18:42:00,
2013-07-25 12:47:00,73.6,52.2,29.99,ESE,117,0.0,6.0,47,0.00,,---,0.02,VWS V13.00,2013-07-25 18:47:00,
2013-07-25 12:52:00,74.0,55.3,29.99,ESE,103,5.0,6.0,52,0.00,,---,0.02,VWS V13.00,2013-07-25 18:52:00,
2013-07-25 12:57:00,74.4,55.1,29.99,SE,140,0.0,9.0,51,0.00,,---,0.02,VWS V13.00,2013-07-25 18:57:00,
2013-07-25 13:02:00,75.1,55.8,29.99,SE,131,5.0,9.0,51,0.00,,---,0.02,VWS V13.00,2013-07-25 19:02:00,
2013-07-25 13:07:00,75.3,55.4,29.98,ESE,109,9.0,10.0,50,0.00,,---,0.02,VWS V13.00,2013-07-25 19:07:00,
2013-07-25 13:12:00,74.7,57.0,29.98,ESE,117,6.0,11.0,54,0.00,,---,0.02,VWS V13.00,2013-07-25 19:12:00,
2013-07-25 13:17:00,74.6,54.2,29.98,ESE,114,7.0,11.0,49,0.00,,---,0.02,VWS V13.00,2013-07-25 19:17:00,
2013-07-25 13:22:00,74.3,56.6,29.98,SE,125,9.0,11.0,54,0.00,,---,0.02,VWS V13.00,2013-07-25 19:22:00,
2013-07-25 13:27:00,74.0,55.3,29.98,ESE,114,0.0,11.0,52,0.00,,---,0.02,VWS V13.00,2013-07-25 19:27:00,
2013-07-25 13:32:00,74.2,56.0,29.98,ESE,105,12.0,14.0,53,0.00,,---,0.02,VWS V13.00,2013-07-25 19:32:00,
2013-07-25 13:37:00,73.8,55.6,29.97,East,99,4.0,14.0,53,0.00,,---,0.02,VWS V13.00,2013-07-25 19:37:00,
2013-07-25 13:42:00,73.3,56.2,29.97,East,83,7.0,12.0,55,0.00,,---,0.02,VWS V13.00,2013-07-25 19:42:00,
2013-07-25 13:47:00,73.1,55.5,29.97,SE,124,2.0,12.0,54,0.00,,---,0.02,VWS V13.00,2013-07-25 19:47:00,
2013-07-25 13:53:00,73.3,56.2,29.98,ESE,102,10.0,15.0,55,0.00,,---,0.02,VWS V13.00,2013-07-25 19:53:00,
2013-07-25 13:58:00,72.8,56.7,29.98,East,100,10.0,16.0,57,0.00,,---,0.02,VWS V13.00,2013-07-25 19:58:00,
2013-07-25 14:03:00,72.9,56.8,29.98,East,88,10.0,18.0,57,0.00,,---,0.02,VWS V13.00,2013-07-25 20:03:00,
2013-07-25 14:08:00,72.9,56.8,29.97,East,96,17.0,17.0,57,0.00,,---,0.02,VWS V13.00,2013-07-25 20:08:00,
2013-07-25 14:13:00,71.9,56.3,29.97,East,94,11.0,17.0,58,0.00,,---,0.02,VWS V13.00,2013-07-25 20:13:00,
2013-07-25 14:18:00,71.6,56.1,29.97,East,98,9.0,17.0,58,0.00,,---,0.02,VWS V13.00,2013-07-25 20:18:00,
2013-07-25 14:23:00,71.6,57.5,29.98,East,86,8.0,17.0,61,0.00,,---,0.02,VWS V13.00,2013-07-25 20:23:00,
2013-07-25 14:28:00,72.4,57.8,29.98,East,99,13.0,17.0,60,0.00,,---,0.02,VWS V13.00,2013-07-25 20:28:00,
2013-07-25 14:33:00,72.8,56.7,29.98,East,80,13.0,21.0,57,0.00,,---,0.02,VWS V13.00,2013-07-25 20:33:00,
2013-07-25 14:38:00,73.1,57.0,29.97,ESE,111,14.0,15.0,57,0.00,,---,0.02,VWS V13.00,2013-07-25 20:38:00,
2013-07-25 14:43:00,72.8,56.7,29.97,East,86,12.0,18.0,57,0.00,,---,0.02,VWS V13.00,2013-07-25 20:43:00,
2013-07-25 14:48:00,72.8,56.7,29.97,East,82,6.0,19.0,57,0.00,,---,0.02,VWS V13.00,2013-07-25 20:48:00,
2013-07-25 14:53:00,72.9,56.8,29.97,East,93,3.0,20.0,57,0.00,,---,0.02,VWS V13.00,2013-07-25 20:53:00,
2013-07-25 14:58:00,73.0,56.9,29.97,East,87,22.0,23.0,57,0.00,,---,0.02,VWS V13.00,2013-07-25 20:58:00,
2013-07-25 15:03:00,72.7,57.1,29.97,ESE,115,12.0,23.0,58,0.00,,---,0.02,VWS V13.00,2013-07-25 21:03:00,
2013-07-25 15:08:00,72.9,57.3,29.97,East,88,11.0,11.0,58,0.00,,---,0.02,VWS V13.00,2013-07-25 21:08:00,
2013-07-25 15:13:00,73.1,57.5,29.97,East,91,13.0,17.0,58,0.00,,---,0.02,VWS V13.00,2013-07-25 21:13:00,
2013-07-25 15:18:00,73.0,56.9,29.97,East,79,9.0,18.0,57,0.00,,---,0.02,VWS V13.00,2013-07-25 21:18:00,
2013-07-25 15:23:00,73.0,56.4,29.98,ESE,113,10.0,20.0,56,0.00,,---,0.02,VWS V13.00,2013-07-25 21:23:00,
2013-07-25 15:28:00,73.1,57.0,29.98,ENE,78,5.0,20.0,57,0.00,,---,0.02,VWS V13.00,2013-07-25 21:28:00,
2013-07-25 15:33:00,73.0,56.4,29.98,ESE,102,15.0,20.0,56,0.00,,---,0.02,VWS V13.00,2013-07-25 21:33:00,
2013-07-25 15:38:00,73.0,56.4,29.97,East,98,9.0,13.0,56,0.00,,---,0.02,VWS V13.00,2013-07-25 21:38:00,
2013-07-25 15:43:00,73.1,57.0,29.97,East,95,10.0,17.0,57,0.00,,---,0.02,VWS V13.00,2013-07-25 21:43:00,
2013-07-25 15:48:00,73.0,57.4,29.97,ENE,72,12.0,21.0,58,0.00,,---,0.02,VWS V13.00,2013-07-25 21:48:00,
2013-07-25 15:53:00,73.0,56.4,29.97,East,94,10.0,21.0,56,0.00,,---,0.02,VWS V13.00,2013-07-25 21:53:00,
2013-07-25 15:58:00,73.0,57.4,29.97,ENE,78,6.0,21.0,58,0.00,,---,0.02,VWS V13.00,2013-07-25 21:58:00,
2013-07-25 16:03:00,73.2,56.6,29.97,East,82,12.0,21.0,56,0.00,,---,0.02,VWS V13.00,2013-07-25 22:03:00,
2013-07-25 16:08:00,73.0,56.9,29.96,East,88,12.0,16.0,57,0.00,,---,0.02,VWS V13.00,2013-07-25 22:08:00,
2013-07-25 16:13:00,73.2,56.6,29.96,ESE,102,16.0,20.0,56,0.00,,---,0.02,VWS V13.00,2013-07-25 22:13:00,
2013-07-25 16:18:00,73.1,57.0,29.96,ENE,76,13.0,20.0,57,0.00,,---,0.02,VWS V13.00,2013-07-25 22:18:00,
2013-07-25 16:23:00,72.8,56.7,29.96,ENE,70,11.0,21.0,57,0.00,,---,0.02,VWS V13.00,2013-07-25 22:23:00,
2013-07-25 16:28:00,73.0,57.8,29.96,ESE,116,12.0,21.0,59,0.00,,---,0.02,VWS V13.00,2013-07-25 22:28:00,
2013-07-25 16:33:00,72.9,57.3,29.96,East,101,16.0,21.0,58,0.00,,---,0.02,VWS V13.00,2013-07-25 22:33:00,
2013-07-25 16:38:00,72.7,56.6,29.96,East,95,10.0,12.0,57,0.00,,---,0.02,VWS V13.00,2013-07-25 22:38:00,
2013-07-25 16:43:00,72.2,56.6,29.96,East,80,13.0,24.0,58,0.00,,---,0.02,VWS V13.00,2013-07-25 22:43:00,
2013-07-25 16:48:00,72.0,56.4,29.96,East,94,10.0,24.0,58,0.00,,---,0.02,VWS V13.00,2013-07-25 22:48:00,
2013-07-25 16:53:00,71.8,56.2,29.98,East,90,10.0,24.0,58,0.00,,---,0.02,VWS V13.00,2013-07-25 22:53:00,
2013-07-25 16:58:00,71.7,56.6,29.98,East,90,7.0,24.0,59,0.00,,---,0.02,VWS V13.00,2013-07-25 22:58:00,
2013-07-25 17:03:00,71.9,55.9,29.98,East,88,12.0,24.0,57,0.00,,---,0.02,VWS V13.00,2013-07-25 23:03:00,
2013-07-25 17:07:00,71.9,56.8,29.97,East,86,18.0,18.0,59,0.00,,---,0.02,VWS V13.00,2013-07-25 23:07:00,
2013-07-25 17:12:00,71.6,56.1,29.97,East,95,15.0,24.0,58,0.00,,---,0.02,VWS V13.00,2013-07-25 23:12:00,
2013-07-25 17:17:00,71.4,56.3,29.97,ESE,106,7.0,24.0,59,0.00,,---,0.02,VWS V13.00,2013-07-25 23:17:00,
2013-07-25 17:22:00,71.7,56.6,29.98,ESE,103,10.0,24.0,59,0.00,,---,0.02,VWS V13.00,2013-07-25 23:22:00,
2013-07-25 17:27:00,71.4,55.9,29.98,East,84,15.0,24.0,58,0.00,,---,0.02,VWS V13.00,2013-07-25 23:27:00,
2013-07-25 17:32:00,71.2,56.2,29.98,ESE,110,15.0,24.0,59,0.00,,---,0.02,VWS V13.00,2013-07-25 23:32:00,
2013-07-25 17:37:00,71.0,56.0,29.99,ESE,114,6.0,7.0,59,0.00,,---,0.02,VWS V13.00,2013-07-25 23:37:00,
2013-07-25 17:42:00,71.0,56.0,29.99,ESE,103,13.0,20.0,59,0.00,,---,0.02,VWS V13.00,2013-07-25 23:42:00,
2013-07-25 17:47:00,71.3,55.8,29.99,East,90,14.0,20.0,58,0.00,,---,0.02,VWS V13.00,2013-07-25 23:47:00,
2013-07-25 17:52:00,71.2,55.2,29.98,East,96,15.0,21.0,57,0.00,,---,0.02,VWS V13.00,2013-07-25 23:52:00,
2013-07-25 17:57:00,70.9,55.4,29.98,East,93,13.0,21.0,58,0.00,,---,0.02,VWS V13.00,2013-07-25 23:57:00,
2013-07-25 18:02:00,70.8,55.8,29.98,ESE,102,10.0,21.0,59,0.00,,---,0.02,VWS V13.00,2013-07-26 00:02:00,
2013-07-25 18:07:00,71.0,56.0,29.98,East,92,7.0,10.0,59,0.00,,---,0.02,VWS V13.00,2013-07-26 00:07:00,
2013-07-25 18:12:00,70.7,55.2,29.98,East,92,15.0,23.0,58,0.00,,---,0.02,VWS V13.00,2013-07-26 00:12:00,
2013-07-25 18:17:00,70.4,55.9,29.98,East,101,13.0,23.0,60,0.00,,---,0.02,VWS V13.00,2013-07-26 00:17:00,
2013-07-25 18:22:00,70.2,55.7,29.99,East,94,11.0,23.0,60,0.00,,---,0.02,VWS V13.00,2013-07-26 00:22:00,
2013-07-25 18:27:00,70.2,55.7,29.99,East,86,13.0,23.0,60,0.00,,---,0.02,VWS V13.00,2013-07-26 00:27:00,
2013-07-25 18:32:00,70.0,55.0,29.99,ESE,103,17.0,23.0,59,0.00,,---,0.02,VWS V13.00,2013-07-26 00:32:00,
2013-07-25 18:37:00,69.7,55.2,29.99,East,86,14.0,23.0,60,0.00,,---,0.02,VWS V13.00,2013-07-26 00:37:00,
2013-07-25 18:42:00,69.5,55.0,29.99,East,94,20.0,24.0,60,0.00,,---,0.02,VWS V13.00,2013-07-26 00:42:00,
2013-07-25 18:47:00,69.3,54.8,29.99,ESE,107,16.0,25.0,60,0.00,,---,0.02,VWS V13.00,2013-07-26 00:47:00,
2013-07-25 18:52:00,69.1,54.7,29.98,ESE,109,16.0,25.0,60,0.00,,---,0.02,VWS V13.00,2013-07-26 00:52:00,
2013-07-25 18:57:00,69.1,55.1,29.98,East,92,8.0,25.0,61,0.00,,---,0.02,VWS V13.00,2013-07-26 00:57:00,
2013-07-25 19:02:00,69.0,54.5,29.98,ESE,113,17.0,25.0,60,0.00,,---,0.02,VWS V13.00,2013-07-26 01:02:00,
2013-07-25 19:07:00,68.6,54.2,29.99,East,99,12.0,25.0,60,0.00,,---,0.02,VWS V13.00,2013-07-26 01:07:00,
2013-07-25 19:12:00,68.4,54.4,29.99,East,84,6.0,19.0,61,0.00,,---,0.02,VWS V13.00,2013-07-26 01:12:00,
2013-07-25 19:17:00,68.4,54.9,29.99,ESE,107,23.0,23.0,62,0.00,,---,0.02,VWS V13.00,2013-07-26 01:17:00,
2013-07-25 19:22:00,68.3,53.9,29.99,East,98,13.0,24.0,60,0.00,,---,0.02,VWS V13.00,2013-07-26 01:22:00,
2013-07-25 19:27:00,68.0,54.1,29.99,ESE,103,22.0,25.0,61,0.00,,---,0.02,VWS V13.00,2013-07-26 01:27:00,
2013-07-25 19:32:00,67.6,53.7,29.99,ESE,105,14.0,25.0,61,0.00,,---,0.02,VWS V13.00,2013-07-26 01:32:00,
2013-07-25 19:37:00,67.4,53.9,30.00,East,98,7.0,25.0,62,0.00,,---,0.02,VWS V13.00,2013-07-26 01:37:00,
2013-07-25 19:42:00,67.4,53.9,30.00,ESE,103,12.0,20.0,62,0.00,,---,0.02,VWS V13.00,2013-07-26 01:42:00,
2013-07-25 19:47:00,67.3,53.8,30.00,East,94,16.0,22.0,62,0.00,,---,0.02,VWS V13.00,2013-07-26 01:47:00,
2013-07-25 19:52:00,66.9,53.5,29.98,East,99,9.0,22.0,62,0.00,,---,0.02,VWS V13.00,2013-07-26 01:52:00,
2013-07-25 19:57:00,66.6,53.6,29.98,ESE,102,6.0,22.0,63,0.00,,---,0.02,VWS V13.00,2013-07-26 01:57:00,
2013-07-25 20:02:00,66.4,53.9,29.98,ESE,105,12.0,22.0,64,0.00,,---,0.02,VWS V13.00,2013-07-26 02:02:00,
2013-07-25 20:07:00,66.2,53.2,29.98,East,94,6.0,24.0,63,0.00,,---,0.02,VWS V13.00,2013-07-26 02:07:00,
2013-07-25 20:12:00,65.9,53.0,29.98,East,96,15.0,22.0,63,0.00,,---,0.02,VWS V13.00,2013-07-26 02:12:00,
2013-07-25 20:17:00,65.7,53.2,29.98,East,100,18.0,22.0,64,0.00,,---,0.02,VWS V13.00,2013-07-26 02:17:00,
2013-07-25 20:22:00,65.4,52.9,29.98,ESE,104,7.0,22.0,64,0.00,,---,0.02,VWS V13.00,2013-07-26 02:22:00,
2013-07-25 20:27:00,65.3,52.8,29.98,ESE,102,14.0,22.0,64,0.00,,---,0.02,VWS V13.00,2013-07-26 02:27:00,
2013-07-25 20:32:00,65.0,53.0,29.98,ESE,107,11.0,22.0,65,0.00,,---,0.02,VWS V13.00,2013-07-26 02:32:00,
2013-07-25 20:37:00,64.8,52.8,29.99,ESE,105,11.0,22.0,65,0.00,,---,0.02,VWS V13.00,2013-07-26 02:37:00,
2013-07-25 20:42:00,64.6,52.6,29.99,East,101,6.0,22.0,65,0.00,,---,0.02,VWS V13.00,2013-07-26 02:42:00,
2013-07-25 20:47:00,64.4,52.4,29.99,East,100,13.0,22.0,65,0.00,,---,0.02,VWS V13.00,2013-07-26 02:47:00,
2013-07-25 20:52:00,64.1,52.1,29.98,ESE,104,13.0,22.0,65,0.00,,---,0.02,VWS V13.00,2013-07-26 02:52:00,
2013-07-25 20:57:00,64.0,52.0,29.98,ESE,115,8.0,22.0,65,0.00,,---,0.02,VWS V13.00,2013-07-26 02:57:00,
2013-07-25 21:02:00,63.7,52.1,29.98,East,100,11.0,22.0,66,0.00,,---,0.02,VWS V13.00,2013-07-26 03:02:00,
2013-07-25 21:07:00,63.6,52.0,29.99,ESE,102,14.0,22.0,66,0.00,,---,0.02,VWS V13.00,2013-07-26 03:07:00,
2013-07-25 21:12:00,63.4,51.9,29.99,ESE,110,8.0,18.0,66,0.00,,---,0.02,VWS V13.00,2013-07-26 03:12:00,
2013-07-25 21:17:00,63.1,51.6,29.99,ESE,111,6.0,18.0,66,0.00,,---,0.02,VWS V13.00,2013-07-26 03:17:00,
2013-07-25 21:22:00,62.7,51.6,29.99,ESE,109,9.0,18.0,67,0.00,,---,0.02,VWS V13.00,2013-07-26 03:22:00,
2013-07-25 21:27:00,62.5,51.4,29.99,East,101,9.0,18.0,67,0.00,,---,0.02,VWS V13.00,2013-07-26 03:27:00,
2013-07-25 21:32:00,62.3,51.6,29.99,ESE,113,7.0,18.0,68,0.00,,---,0.02,VWS V13.00,2013-07-26 03:32:00,
2013-07-25 21:37:00,62.1,51.4,30.01,ESE,111,6.0,18.0,68,0.00,,---,0.02,VWS V13.00,2013-07-26 03:37:00,
2013-07-25 21:42:00,61.8,51.5,30.01,ESE,106,12.0,18.0,69,0.00,,---,0.02,VWS V13.00,2013-07-26 03:42:00,
2013-07-25 21:47:00,61.7,51.4,30.01,ESE,113,7.0,18.0,69,0.00,,---,0.02,VWS V13.00,2013-07-26 03:47:00,
2013-07-25 21:52:00,61.5,51.2,30.00,ESE,103,5.0,18.0,69,0.00,,---,0.02,VWS V13.00,2013-07-26 03:52:00,
2013-07-25 21:57:00,61.3,51.1,30.00,ESE,116,5.0,18.0,69,0.00,,---,0.02,VWS V13.00,2013-07-26 03:57:00,
2013-07-25 22:01:00,61.2,51.3,30.00,ESE,110,5.0,18.0,70,0.00,,---,0.02,VWS V13.00,2013-07-26 04:01:00,
2013-07-25 22:06:00,61.1,51.2,30.00,ESE,113,6.0,18.0,70,0.00,,---,0.02,VWS V13.00,2013-07-26 04:06:00,
2013-07-25 22:11:00,61.1,50.9,30.00,ESE,115,7.0,16.0,69,0.00,,---,0.02,VWS V13.00,2013-07-26 04:11:00,
2013-07-25 22:16:00,61.3,51.1,30.00,ESE,111,5.0,16.0,69,0.00,,---,0.02,VWS V13.00,2013-07-26 04:16:00,
2013-07-25 22:21:00,61.2,51.0,30.00,ESE,114,7.0,16.0,69,0.00,,---,0.02,VWS V13.00,2013-07-26 04:21:00,
2013-07-25 22:26:00,61.2,51.0,30.01,ESE,107,6.0,16.0,69,0.00,,---,0.02,VWS V13.00,2013-07-26 04:26:00,
2013-07-25 22:31:00,61.2,51.0,30.01,ESE,111,7.0,16.0,69,0.00,,---,0.02,VWS V13.00,2013-07-26 04:31:00,
2013-07-25 22:37:00,61.2,51.0,30.01,ESE,107,13.0,16.0,69,0.00,,---,0.02,VWS V13.00,2013-07-26 04:37:00,
2013-07-25 22:42:00,61.3,50.7,30.01,ESE,103,10.0,18.0,68,0.00,,---,0.02,VWS V13.00,2013-07-26 04:42:00,
2013-07-25 22:47:00,61.6,50.5,30.01,ESE,112,15.0,19.0,67,0.00,,---,0.02,VWS V13.00,2013-07-26 04:47:00,
2013-07-25 22:52:00,61.7,50.6,30.01,East,95,8.0,19.0,67,0.00,,---,0.02,VWS V13.00,2013-07-26 04:52:00,
2013-07-25 22:57:00,61.5,50.8,30.01,ESE,103,4.0,19.0,68,0.00,,---,0.02,VWS V13.00,2013-07-26 04:57:00,
2013-07-25 23:02:00,61.1,50.9,30.01,ESE,110,6.0,19.0,69,0.00,,---,0.02,VWS V13.00,2013-07-26 05:02:00,
2013-07-25 23:07:00,60.9,51.1,30.01,SE,131,11.0,19.0,70,0.00,,---,0.02,VWS V13.00,2013-07-26 05:07:00,
2013-07-25 23:12:00,60.7,50.9,30.01,ESE,109,5.0,16.0,70,0.00,,---,0.02,VWS V13.00,2013-07-26 05:12:00,
2013-07-25 23:17:00,60.5,51.1,30.01,ESE,113,6.0,16.0,71,0.00,,---,0.02,VWS V13.00,2013-07-26 05:17:00,
2013-07-25 23:22:00,60.2,51.2,30.01,ESE,115,10.0,17.0,72,0.00,,---,0.02,VWS V13.00,2013-07-26 05:22:00,
2013-07-25 23:27:00,60.0,51.0,30.01,ESE,105,6.0,18.0,72,0.00,,---,0.02,VWS V13.00,2013-07-26 05:27:00,
2013-07-25 23:32:00,59.8,51.1,30.01,ESE,103,15.0,18.0,73,0.00,,---,0.02,VWS V13.00,2013-07-26 05:32:00,
2013-07-25 23:37:00,59.6,51.0,30.01,ESE,109,14.0,19.0,73,0.00,,---,0.02,VWS V13.00,2013-07-26 05:37:00,
2013-07-25 23:42:00,59.5,50.8,30.01,ESE,109,7.0,20.0,73,0.00,,---,0.00,VWS V13.00,2013-07-26 05:42:00,
2013-07-25 23:47:00,59.3,50.7,30.01,ESE,115,4.0,20.0,73,0.00,,---,0.00,VWS V13.00,2013-07-26 05:47:00,
2013-07-25 23:52:00,59.1,50.5,30.01,ESE,103,10.0,22.0,73,0.00,,---,0.00,VWS V13.00,2013-07-26 05:52:00,
2013-07-25 23:57:00,59.0,50.4,30.01,ESE,102,10.0,22.0,73,0.00,,---,0.00,VWS V13.00,2013-07-26 05:57:00,